Time;durP1;ratioP1;P1;durP2;ratioP2;P2;SDS_P1;SDS_P2;PMS_P1;PMS_P2;Temp;Humidity;BMP_temperature;BMP_pressure;BME280_temperature;BME280_humidity;BME280_pressure;Samples;Min_cycle;Max_cycle;Signal;HPM_P1;HPM_P2
2021/06/14 00:00:10;;;;;;;4.77;2.30;;;;;;;11.56;64.62;95797.57;1795446;80;21492;-64
2021/06/14 00:02:42;;;;;;;6.27;2.30;;;;;;;11.48;64.78;95793.76;1794937;80;21042;-64
2021/06/14 00:05:17;;;;;;;3.33;2.30;;;;;;;11.47;64.94;95808.34;1795273;80;21030;-64
2021/06/14 00:07:44;;;;;;;4.40;1.73;;;;;;;11.46;64.88;95801.30;1795535;80;20983;-64
2021/06/14 00:10:13;;;;;;;6.23;2.20;;;;;;;11.44;64.88;95794.73;1795068;80;21022;-64
2021/06/14 00:12:41;;;;;;;5.97;2.20;;;;;;;11.44;65.00;95789.88;1795578;80;21007;-64
2021/06/14 00:15:10;;;;;;;6.07;1.87;;;;;;;11.43;64.98;95793.43;1795393;80;21484;-64
2021/06/14 00:17:36;;;;;;;4.17;2.07;;;;;;;11.44;65.50;95790.77;1795517;80;21010;-64
2021/06/14 00:20:08;;;;;;;4.50;2.20;;;;;;;11.38;65.81;95796.16;1795258;80;20979;-64
2021/06/14 00:22:36;;;;;;;2.43;1.57;;;;;;;11.35;65.46;95788.29;1795343;80;21049;-64
2021/06/14 00:25:05;;;;;;;3.70;2.07;;;;;;;11.33;65.32;95785.25;1795149;80;21058;-64
2021/06/14 00:27:31;;;;;;;4.20;2.60;;;;;;;11.28;65.44;95784.47;1795391;80;21053;-64
2021/06/14 00:29:58;;;;;;;5.23;2.47;;;;;;;11.21;65.51;95791.63;1795133;80;21595;-64
2021/06/14 00:32:25;;;;;;;3.77;2.20;;;;;;;11.16;66.05;95786.45;1795141;80;21053;-64
2021/06/14 00:34:52;;;;;;;5.30;2.30;;;;;;;11.15;65.90;95790.42;1795519;80;21046;-64
2021/06/14 00:37:18;;;;;;;6.67;2.33;;;;;;;11.19;65.74;95798.73;1790244;80;20963;-64
2021/06/14 00:39:45;;;;;;;4.90;2.40;;;;;;;11.20;66.01;95804.42;1795336;80;21075;-64
2021/06/14 00:42:12;;;;;;;4.87;2.10;;;;;;;11.21;66.21;95791.63;1792057;80;21019;-64
2021/06/14 00:44:40;;;;;;;5.47;2.50;;;;;;;11.20;65.78;95792.53;1786837;80;20995;-65
2021/06/14 00:47:07;;;;;;;5.17;2.07;;;;;;;11.21;65.96;95787.66;1787085;80;20971;-64
2021/06/14 00:49:34;;;;;;;6.43;2.43;;;;;;;11.21;66.50;95798.22;1786875;80;20999;-64
2021/06/14 00:52:01;;;;;;;5.93;2.60;;;;;;;11.21;66.48;95802.19;1786849;80;21086;-64
2021/06/14 00:54:28;;;;;;;4.37;2.10;;;;;;;11.21;66.29;95789.88;1786903;80;21030;-64
2021/06/14 00:56:56;;;;;;;3.70;2.20;;;;;;;11.23;66.79;95787.19;1786723;80;21069;-66
2021/06/14 00:59:25;;;;;;;6.17;2.20;;;;;;;11.16;67.00;95785.13;1786808;80;21091;-64
2021/06/14 01:01:52;;;;;;;3.37;2.03;;;;;;;11.20;66.75;95778.01;1786909;80;21018;-64
2021/06/14 01:04:19;;;;;;;4.67;1.80;;;;;;;11.22;66.18;95782.36;1787081;80;21003;-64
2021/06/14 01:06:49;;;;;;;3.73;1.77;;;;;;;11.20;66.03;95777.55;1787062;80;21095;-63
2021/06/14 01:09:17;;;;;;;4.93;1.53;;;;;;;11.23;66.26;95773.98;1787280;80;21022;-64
2021/06/14 01:12:01;;;;;;;5.60;1.90;;;;;;;11.25;66.03;95776.16;1786682;80;21018;-64
2021/06/14 01:14:52;;;;;;;4.37;1.70;;;;;;;11.25;65.96;95772.19;1786844;80;21034;-64
2021/06/14 01:17:31;;;;;;;3.53;1.77;;;;;;;11.24;65.75;95768.69;1786892;80;21067;-64
2021/06/14 01:20:43;;;;;;;4.87;2.30;;;;;;;11.24;66.25;95779.70;1787008;80;21002;-64
2021/06/14 01:23:36;;;;;;;4.83;2.50;;;;;;;11.24;66.33;95772.65;1765719;80;21154;-64
2021/06/14 01:26:11;;;;;;;3.62;1.90;;;;;;;11.28;66.32;95779.19;1784551;80;21046;-64
2021/06/14 01:28:39;;;;;;;4.47;1.87;;;;;;;11.28;66.43;95773.45;1786794;80;21007;-64
2021/06/14 01:31:10;;;;;;;2.87;1.70;;;;;;;11.30;66.48;95787.96;1786376;80;21042;-64
2021/06/14 01:33:38;;;;;;;7.07;2.20;;;;;;;11.28;66.48;95784.02;1786846;80;21011;-64
2021/06/14 01:36:14;;;;;;;4.47;2.00;;;;;;;11.30;66.11;95776.08;1787092;80;21006;-64
2021/06/14 01:38:46;;;;;;;4.23;1.80;;;;;;;11.31;65.98;95772.06;1787199;80;21529;-64
2021/06/14 01:41:16;;;;;;;2.33;1.70;;;;;;;11.21;65.86;95775.35;1754031;80;20991;-64
2021/06/14 01:43:43;;;;;;;4.13;1.87;;;;;;;11.23;66.42;95764.73;1788778;80;21019;-64
2021/06/14 01:46:19;;;;;;;7.03;2.10;;;;;;;11.19;66.22;95764.39;1786566;80;20975;-64
2021/06/14 01:48:48;;;;;;;1.90;1.30;;;;;;;11.23;66.32;95766.06;1787129;80;21023;-64
2021/06/14 01:51:21;;;;;;;5.43;1.30;;;;;;;11.17;66.35;95772.33;1787015;80;21003;-64
2021/06/14 01:54:09;;;;;;;2.00;1.20;;;;;;;11.19;66.13;95782.42;1787346;80;21062;-64
2021/06/14 01:56:45;;;;;;;2.70;1.27;;;;;;;11.22;66.59;95773.12;1786227;80;21285;-64
2021/06/14 01:59:19;;;;;;;3.13;1.27;;;;;;;11.27;66.37;95779.64;1787162;80;21070;-64
2021/06/14 02:01:49;;;;;;;2.30;1.37;;;;;;;11.28;66.42;95776.55;1787016;80;20995;-64
2021/06/14 02:04:17;;;;;;;1.50;1.20;;;;;;;11.29;66.36;95779.59;1787018;80;20998;-64
2021/06/14 02:06:50;;;;;;;2.47;1.40;;;;;;;11.28;66.50;95777.87;1786623;80;20972;-64
2021/06/14 02:09:22;;;;;;;3.50;1.50;;;;;;;11.23;66.77;95773.53;1786109;80;21600;-64
2021/06/14 02:11:53;;;;;;;4.63;1.60;;;;;;;11.28;67.23;95772.13;1754287;80;21031;-64
2021/06/14 02:14:30;;;;;;;2.50;1.27;;;;;;;11.31;66.82;95771.20;1786999;80;21114;-64
2021/06/14 02:17:07;;;;;;;3.00;1.40;;;;;;;11.25;66.47;95770.87;1787048;80;21080;-64
2021/06/14 02:19:43;;;;;;;2.93;1.33;;;;;;;11.19;66.66;95765.72;1786922;80;21015;-64
2021/06/14 02:22:12;;;;;;;2.63;1.43;;;;;;;11.18;67.60;95775.84;1787088;80;20979;-64
2021/06/14 02:24:40;;;;;;;2.73;1.40;;;;;;;11.20;67.05;95776.23;1787029;80;21145;-64
2021/06/14 02:27:11;;;;;;;2.10;1.60;;;;;;;11.17;67.42;95771.47;1787017;80;20986;-64
2021/06/14 02:29:40;;;;;;;3.27;1.20;;;;;;;11.18;67.63;95777.16;1753700;80;21046;-64
2021/06/14 02:32:08;;;;;;;1.67;1.20;;;;;;;11.20;68.03;95781.52;1787043;80;21079;-64
2021/06/14 02:34:36;;;;;;;1.87;1.30;;;;;;;11.19;68.11;95773.18;1786867;80;21095;-64
2021/06/14 02:37:06;;;;;;;1.50;1.30;;;;;;;11.21;67.83;95775.35;1787179;80;20971;-64
2021/06/14 02:39:35;;;;;;;3.23;1.30;;;;;;;11.28;67.95;95777.41;1787163;80;21607;-64
2021/06/14 02:42:05;;;;;;;3.20;1.40;;;;;;;11.31;68.07;95773.84;1787332;80;21428;-64
2021/06/14 02:44:32;;;;;;;4.00;1.60;;;;;;;11.32;68.70;95770.31;1791784;80;21560;-64
2021/06/14 02:47:08;;;;;;;3.93;1.03;;;;;;;11.37;68.35;95768.00;1795890;80;21011;-64
2021/06/14 02:49:37;;;;;;;3.60;1.03;;;;;;;11.43;69.13;95773.61;1795530;80;21508;-64
2021/06/14 02:52:09;;;;;;;4.30;1.20;;;;;;;11.48;68.66;95766.47;1795788;80;21051;-64
2021/06/14 02:54:41;;;;;;;5.20;1.15;;;;;;;11.52;68.96;95769.48;1795913;80;21055;-64
2021/06/14 02:57:11;;;;;;;1.70;1.07;;;;;;;11.60;69.57;95765.38;1795865;80;21054;-64
2021/06/14 02:59:41;;;;;;;2.97;1.30;;;;;;;11.64;69.26;95769.25;1795567;80;21026;-64
2021/06/14 03:02:09;;;;;;;1.80;1.20;;;;;;;11.64;69.55;95763.06;1795791;80;21557;-64
2021/06/14 03:04:36;;;;;;;4.43;2.27;;;;;;;11.69;69.10;95767.80;1795562;80;21007;-64
2021/06/14 03:07:05;;;;;;;2.33;1.90;;;;;;;11.64;68.59;95767.92;1795813;80;21479;-64
2021/06/14 03:09:34;;;;;;;5.03;1.70;;;;;;;11.64;68.03;95765.70;1795866;80;21097;-64
2021/06/14 03:12:02;;;;;;;3.23;1.57;;;;;;;11.74;68.77;95775.66;1795762;80;21464;-64
2021/06/14 03:14:31;;;;;;;3.40;1.57;;;;;;;11.70;68.23;95773.53;1795759;80;21019;-64
2021/06/14 03:16:58;;;;;;;2.83;1.40;;;;;;;11.70;68.61;95760.31;1795773;80;21065;-64
2021/06/14 03:19:27;;;;;;;2.43;1.80;;;;;;;11.69;69.49;95758.13;1795544;80;21011;-64
2021/06/14 03:21:56;;;;;;;2.73;1.80;;;;;;;11.72;69.00;95764.23;1795142;80;21481;-64
2021/06/14 03:24:24;;;;;;;3.30;1.80;;;;;;;11.73;68.92;95755.42;1795077;80;21026;-64
2021/06/14 03:26:52;;;;;;;3.40;1.70;;;;;;;11.70;69.23;95765.14;1767007;80;21049;-64
2021/06/14 03:29:22;;;;;;;3.37;1.90;;;;;;;11.67;68.86;95767.86;1795667;80;21061;-64
2021/06/14 03:31:50;;;;;;;4.30;2.00;;;;;;;11.61;69.17;95755.20;1766426;80;21076;-64
2021/06/14 03:34:20;;;;;;;5.13;2.37;;;;;;;11.58;69.32;95762.75;1795426;80;21090;-64
2021/06/14 03:36:48;;;;;;;4.33;2.50;;;;;;;11.55;68.83;95759.30;1795858;80;21002;-64
2021/06/14 03:39:19;;;;;;;4.43;2.50;;;;;;;11.53;68.67;95767.25;1795771;80;21081;-64
2021/06/14 03:41:47;;;;;;;6.23;3.00;;;;;;;11.42;69.58;95765.28;1795912;80;21468;-64
2021/06/14 03:44:16;;;;;;;6.07;2.27;;;;;;;11.38;68.82;95765.77;1795655;80;21465;-64
2021/06/14 03:46:44;;;;;;;6.13;2.40;;;;;;;11.38;69.10;95764.91;1795113;80;21509;-64
2021/06/14 03:49:11;;;;;;;4.83;2.57;;;;;;;11.34;69.55;95774.67;1795562;80;21050;-64
2021/06/14 03:51:39;;;;;;;3.67;1.97;;;;;;;11.31;70.14;95770.74;1795551;80;21053;-64
2021/06/14 03:54:06;;;;;;;2.43;1.60;;;;;;;11.30;69.75;95764.19;1794981;80;21053;-64
2021/06/14 03:56:35;;;;;;;5.30;1.70;;;;;;;11.19;70.41;95766.58;1795163;80;21091;-64
2021/06/14 03:59:04;;;;;;;2.70;1.73;;;;;;;11.21;71.32;95762.56;1795549;80;21461;-64
2021/06/14 04:01:31;;;;;;;2.47;1.80;;;;;;;11.19;71.58;95762.62;1795443;80;21503;-64
2021/06/14 04:06:33;;;;;;;4.00;1.70;;;;;;;11.23;72.60;95760.32;1795387;80;21006;-64
2021/06/14 04:09:00;;;;;;;3.43;1.70;;;;;;;11.26;73.00;95761.61;1795774;80;20978;-64
2021/06/14 04:11:27;;;;;;;4.53;1.70;;;;;;;11.29;73.42;95762.42;1795312;80;21070;-64
2021/06/14 04:13:53;;;;;;;5.80;1.73;;;;;;;11.30;73.77;95767.69;1790412;80;20943;-64
2021/06/14 04:16:20;;;;;;;1.87;1.23;;;;;;;11.24;73.25;95762.08;1795449;80;20967;-62
2021/06/14 04:18:47;;;;;;;3.23;1.30;;;;;;;11.19;73.46;95756.02;1795415;80;20995;-63
2021/06/14 04:21:14;;;;;;;3.60;1.57;;;;;;;11.19;73.72;95759.98;1795316;80;21565;-64
2021/06/14 04:23:41;;;;;;;1.93;1.30;;;;;;;11.19;74.45;95758.66;1795554;80;21049;-64
2021/06/14 04:26:10;;;;;;;4.37;1.90;;;;;;;11.12;74.26;95760.98;1795308;80;21073;-63
2021/06/14 04:28:38;;;;;;;3.73;2.57;;;;;;;11.04;74.06;95766.86;1795460;80;20975;-64
2021/06/14 04:31:05;;;;;;;4.60;2.00;;;;;;;11.04;74.63;95768.17;1795480;80;21487;-64
2021/06/14 04:33:32;;;;;;;3.27;2.10;;;;;;;11.08;74.75;95769.84;1795291;80;21094;-64
2021/06/14 04:36:02;;;;;;;7.13;2.10;;;;;;;11.11;74.61;95773.74;1794923;80;21042;-64
2021/06/14 04:38:28;;;;;;;3.57;1.77;;;;;;;11.15;74.89;95770.62;1795629;80;20999;-64
2021/06/14 04:40:55;;;;;;;4.10;2.23;;;;;;;11.13;75.37;95769.31;1795366;80;21547;-64
2021/06/14 04:43:22;;;;;;;3.90;1.93;;;;;;;11.11;75.21;95775.52;1795323;80;21011;-64
2021/06/14 04:45:48;;;;;;;2.03;1.50;;;;;;;11.04;75.23;95776.09;1795153;80;21003;-64
2021/06/14 04:48:15;;;;;;;2.30;1.83;;;;;;;11.04;75.25;95772.14;1794976;80;21061;-64
2021/06/14 04:50:41;;;;;;;2.83;1.70;;;;;;;10.97;76.56;95773.14;1795268;80;21027;-62
2021/06/14 04:53:08;;;;;;;3.17;2.40;;;;;;;10.95;75.55;95788.99;1795147;80;21010;-63
2021/06/14 04:55:34;;;;;;;2.10;1.90;;;;;;;10.97;75.19;95779.73;1795261;80;20995;-62
2021/06/14 04:58:01;;;;;;;2.53;1.80;;;;;;;10.99;75.81;95785.87;1795374;80;20959;-61
2021/06/14 05:00:28;;;;;;;4.60;2.20;;;;;;;11.04;75.81;95785.34;1795452;80;21440;-63
2021/06/14 05:02:55;;;;;;;4.93;2.20;;;;;;;11.03;75.71;95787.53;1795384;80;21003;-61
2021/06/14 05:05:21;;;;;;;6.73;2.20;;;;;;;11.09;75.19;95782.17;1795266;80;21018;-59
2021/06/14 05:07:48;;;;;;;1.87;1.50;;;;;;;11.10;75.85;95782.58;1795385;80;21353;-61
2021/06/14 05:10:14;;;;;;;4.73;2.23;;;;;;;11.04;76.08;95785.34;1795227;80;21548;-63
2021/06/14 05:12:41;;;;;;;3.33;1.80;;;;;;;11.07;76.10;95781.32;1795061;80;21106;-65
2021/06/14 05:15:09;;;;;;;3.80;1.83;;;;;;;11.07;76.88;95780.00;1795071;80;21094;-62
2021/06/14 05:17:38;;;;;;;5.27;1.87;;;;;;;11.12;76.64;95776.83;1795368;80;21579;-61
2021/06/14 05:20:06;;;;;;;3.70;1.80;;;;;;;11.10;76.50;95770.70;1795223;80;21037;-63
2021/06/14 05:22:33;;;;;;;3.87;1.70;;;;;;;11.13;77.42;95776.37;1795503;80;20970;-64
2021/06/14 05:24:59;;;;;;;4.90;1.97;;;;;;;11.17;76.60;95782.89;1795520;80;21572;-64
2021/06/14 05:27:26;;;;;;;7.03;2.00;;;;;;;11.21;76.42;95795.16;1795260;80;20975;-64
2021/06/14 05:29:52;;;;;;;2.87;2.10;;;;;;;11.22;76.22;95792.06;1795086;80;21071;-61
2021/06/14 05:32:19;;;;;;;7.93;2.23;;;;;;;11.25;76.08;95799.47;1795239;80;21112;-65
2021/06/14 05:34:45;;;;;;;5.00;2.27;;;;;;;11.30;76.20;95803.81;1763931;81;21037;-64
2021/06/14 05:37:12;;;;;;;4.07;2.23;;;;;;;11.25;76.16;95794.64;1763899;81;21017;-63
2021/06/14 05:39:38;;;;;;;3.23;2.40;;;;;;;11.25;76.18;95795.96;1813984;79;21528;-67
2021/06/14 05:42:06;;;;;;;4.70;2.77;;;;;;;11.24;76.26;95797.74;1814121;79;21022;-66
2021/06/14 05:44:32;;;;;;;4.73;2.87;;;;;;;11.28;76.48;95807.79;1753181;81;21024;-64
2021/06/14 05:46:59;;;;;;;3.17;2.23;;;;;;;11.32;76.16;95804.66;1769988;81;20986;-64
2021/06/14 05:49:25;;;;;;;3.13;2.70;;;;;;;11.23;76.21;95807.00;1770019;81;21022;-63
2021/06/14 05:51:52;;;;;;;3.60;2.50;;;;;;;11.20;76.88;95802.64;1770237;81;21082;-62
2021/06/14 05:54:18;;;;;;;4.47;1.57;;;;;;;11.21;76.39;95804.83;1770242;81;21018;-62
2021/06/14 05:56:45;;;;;;;7.90;2.40;;;;;;;11.21;76.85;95799.55;1770140;81;21007;-64
2021/06/14 05:59:12;;;;;;;5.17;2.53;;;;;;;11.21;76.52;95818.03;1770235;81;21034;-64
2021/06/14 06:01:38;;;;;;;3.23;2.63;;;;;;;11.19;77.41;95814.58;1770367;81;21002;-63
2021/06/14 06:04:05;;;;;;;3.53;2.40;;;;;;;11.16;76.89;95817.24;1770202;81;21102;-63
2021/06/14 06:06:32;;;;;;;3.93;2.60;;;;;;;11.17;76.75;95816.36;1770148;81;20991;-62
2021/06/14 06:08:59;;;;;;;3.13;2.20;;;;;;;11.17;78.05;95819.00;1770066;81;21524;-64
2021/06/14 06:11:25;;;;;;;3.90;2.50;;;;;;;11.21;77.20;95824.64;1770086;81;20998;-63
2021/06/14 06:13:52;;;;;;;4.20;2.37;;;;;;;11.24;77.44;95821.97;1770542;81;20987;-62
2021/06/14 06:16:19;;;;;;;4.00;2.60;;;;;;;11.30;77.25;95824.94;1770212;81;21029;-64
2021/06/14 06:18:46;;;;;;;3.10;2.57;;;;;;;11.36;77.08;95823.50;1770317;81;21024;-62
2021/06/14 06:21:12;;;;;;;7.13;2.90;;;;;;;11.39;77.40;95826.97;1745091;82;21065;-61
2021/06/14 06:23:39;;;;;;;3.97;2.77;;;;;;;11.44;76.93;95830.83;1744981;82;21572;-60
2021/06/14 06:26:06;;;;;;;4.53;3.07;;;;;;;11.43;76.71;95827.78;1770714;81;21062;-60
2021/06/14 06:28:33;;;;;;;5.47;2.90;;;;;;;11.38;77.71;95835.78;1770241;81;21026;-62
2021/06/14 06:31:00;;;;;;;5.17;3.13;;;;;;;11.37;77.64;95838.02;1770196;81;21045;-63
2021/06/14 06:33:26;;;;;;;3.73;3.23;;;;;;;11.35;78.77;95825.27;1770298;81;21077;-61
2021/06/14 06:35:53;;;;;;;4.83;2.90;;;;;;;11.41;78.41;95835.72;1770174;81;21571;-61
2021/06/14 06:38:20;;;;;;;4.77;2.80;;;;;;;11.44;78.56;95828.19;1770561;81;20987;-61
2021/06/14 06:40:46;;;;;;;4.50;3.20;;;;;;;11.37;78.40;95830.09;1745090;82;21007;-62
2021/06/14 06:43:13;;;;;;;5.93;2.80;;;;;;;11.36;78.55;95828.78;1745585;82;21023;-59
2021/06/14 06:45:40;;;;;;;6.47;3.60;;;;;;;11.29;78.63;95831.10;1762945;81;21038;-71
2021/06/14 06:48:08;;;;;;;4.63;3.20;;;;;;;11.30;78.55;95830.22;1747399;82;21153;-65
2021/06/14 06:50:35;;;;;;;6.00;3.57;;;;;;;11.30;78.89;95829.77;1747508;82;21523;-65
2021/06/14 06:53:02;;;;;;;6.73;4.37;;;;;;;11.29;79.32;95842.57;1762553;81;20999;-70
2021/06/14 06:55:30;;;;;;;6.30;3.93;;;;;;;11.29;79.33;95841.25;1747474;82;21050;-61
2021/06/14 06:57:57;;;;;;;4.70;3.67;;;;;;;11.29;79.51;95825.82;1747927;82;21027;-61
2021/06/14 07:00:25;;;;;;;6.00;3.30;;;;;;;11.31;79.99;95826.22;1761918;81;21054;-62
2021/06/14 07:02:52;;;;;;;3.47;2.60;;;;;;;11.33;80.58;95828.84;1762363;81;21544;-61
2021/06/14 07:05:18;;;;;;;5.43;3.60;;;;;;;11.34;79.95;95826.61;1747632;82;21030;-60
2021/06/14 07:07:46;;;;;;;5.33;3.30;;;;;;;11.30;80.83;95830.22;1747734;82;20994;-60
2021/06/14 07:10:13;;;;;;;8.17;4.00;;;;;;;11.38;80.37;95826.53;1762210;81;21027;-61
2021/06/14 07:12:40;;;;;;;8.07;4.20;;;;;;;11.41;80.39;95832.21;1747700;82;21022;-61
2021/06/14 07:15:11;;;;;;;3.23;2.63;;;;;;;11.42;80.32;95825.59;1741772;82;21142;-63
2021/06/14 07:17:42;;;;;;;6.20;2.77;;;;;;;11.45;80.00;95834.78;1743988;82;21006;-65
2021/06/14 07:20:12;;;;;;;4.93;3.03;;;;;;;11.48;79.56;95835.17;1714943;83;21045;-61
2021/06/14 07:22:41;;;;;;;6.33;3.23;;;;;;;11.50;80.21;95837.80;1744156;82;21038;-62
2021/06/14 07:25:11;;;;;;;4.17;2.17;;;;;;;11.55;79.86;95843.41;1714920;84;21018;-64
2021/06/14 07:27:41;;;;;;;4.77;3.30;;;;;;;11.55;79.56;95841.23;1744271;82;21038;-64
2021/06/14 07:30:11;;;;;;;3.10;2.83;;;;;;;11.54;80.04;95847.39;1743902;82;21034;-66
2021/06/14 07:32:39;;;;;;;6.03;3.00;;;;;;;11.59;79.78;95846.43;1714857;84;20994;-64
2021/06/14 07:35:07;;;;;;;3.53;2.97;;;;;;;11.65;79.51;95844.98;1743846;82;20983;-62
2021/06/14 07:37:34;;;;;;;4.63;3.07;;;;;;;11.58;79.59;95842.02;1714896;84;21038;-63
2021/06/14 07:40:00;;;;;;;3.80;3.20;;;;;;;11.51;80.79;95840.39;1744099;82;21070;-62
2021/06/14 07:42:27;;;;;;;3.50;2.57;;;;;;;11.58;81.02;95847.31;1744257;82;20998;-61
2021/06/14 07:44:54;;;;;;;6.50;3.47;;;;;;;11.57;80.85;95836.33;1750360;81;21032;-62
2021/06/14 07:47:20;;;;;;;7.23;3.63;;;;;;;11.55;80.33;95834.16;1756987;82;21058;-61
2021/06/14 07:49:47;;;;;;;7.20;4.20;;;;;;;11.54;80.42;95841.69;1757101;81;21039;-62
2021/06/14 07:52:13;;;;;;;7.03;3.60;;;;;;;11.59;81.07;95838.50;1756732;81;21003;-61
2021/06/14 07:54:40;;;;;;;4.83;3.77;;;;;;;11.62;80.94;95841.53;1757275;82;21501;-62
2021/06/14 07:57:07;;;;;;;5.73;3.60;;;;;;;11.69;80.61;95846.68;1756942;81;21074;-60
2021/06/14 07:59:35;;;;;;;4.27;3.00;;;;;;;11.79;81.13;95838.55;1757141;82;21007;-61
2021/06/14 08:02:03;;;;;;;6.57;3.53;;;;;;;11.82;80.53;95836.73;1756986;81;21018;-59
2021/06/14 08:04:29;;;;;;;5.17;3.40;;;;;;;11.86;80.32;95836.22;1714214;81;21499;-63
2021/06/14 08:06:56;;;;;;;5.37;3.20;;;;;;;11.98;80.06;95839.11;1679583;85;21027;-61
2021/06/14 08:09:29;;;;;;;5.03;3.20;;;;;;;11.98;79.64;95839.11;1707499;84;21034;-63
2021/06/14 08:11:57;;;;;;;5.10;3.27;;;;;;;11.99;79.61;95843.02;1707771;84;21053;-62
2021/06/14 08:14:24;;;;;;;7.63;3.30;;;;;;;12.05;80.05;95838.95;1679722;85;21500;-65
2021/06/14 08:16:51;;;;;;;5.43;2.73;;;;;;;12.12;79.59;95847.64;1707894;84;21441;-65
2021/06/14 08:19:31;;;;;;;3.57;2.37;;;;;;;12.15;79.45;95841.42;1679562;85;21014;-62
2021/06/14 08:26:58;;;;;;;4.50;3.50;;;;;;;12.32;78.50;95849.84;1707747;84;21059;-64
2021/06/14 08:29:24;;;;;;;9.93;3.73;;;;;;;12.24;79.29;95850.47;1707668;84;21003;-61
2021/06/14 08:31:51;;;;;;;5.47;3.40;;;;;;;12.29;79.89;95851.23;1679346;85;21150;-64
2021/06/14 08:34:17;;;;;;;6.03;3.50;;;;;;;12.29;80.20;95852.10;1707609;84;21034;-63
2021/06/14 08:36:45;;;;;;;5.53;3.43;;;;;;;12.31;79.22;95854.27;1679456;85;21031;-65
2021/06/14 08:39:11;;;;;;;6.80;3.77;;;;;;;12.35;78.87;95855.09;1707796;84;21046;-63
2021/06/14 08:41:42;;;;;;;5.03;4.13;;;;;;;12.36;78.68;95851.53;1679747;85;21489;-64
2021/06/14 08:44:10;;;;;;;5.97;3.67;;;;;;;12.29;79.62;95848.13;1712109;81;20999;-62
2021/06/14 08:46:38;;;;;;;3.43;3.13;;;;;;;12.34;80.32;95857.30;1764081;81;21004;-65
2021/06/14 08:49:07;;;;;;;5.87;3.83;;;;;;;12.37;79.17;95859.02;1757280;81;21129;-62
2021/06/14 08:51:35;;;;;;;6.57;3.90;;;;;;;12.34;80.17;95852.88;1800380;80;21010;-62
2021/06/14 08:54:05;;;;;;;4.37;3.70;;;;;;;12.37;79.86;95858.55;1759887;81;21547;-62
2021/06/14 08:56:33;;;;;;;4.17;3.40;;;;;;;12.37;79.91;95865.17;1760221;81;21543;-65
2021/06/14 08:58:59;;;;;;;5.17;3.77;;;;;;;12.36;80.76;95864.76;1759535;81;21370;-65
2021/06/14 09:01:27;;;;;;;11.27;7.00;;;;;;;12.38;80.83;95862.09;1760416;81;21062;-64
2021/06/14 09:03:54;;;;;;;4.50;4.00;;;;;;;12.36;80.42;95861.25;1760347;81;21022;-64
2021/06/14 09:06:21;;;;;;;6.60;3.10;;;;;;;12.38;79.98;95873.55;1760219;81;21070;-64
2021/06/14 09:09:04;;;;;;;4.57;2.50;;;;;;;12.40;79.65;95873.06;1760269;81;21107;-64
2021/06/14 09:11:34;;;;;;;6.70;2.47;;;;;;;12.42;78.95;95871.69;1759754;81;21158;-64
2021/06/14 09:14:02;;;;;;;3.70;3.00;;;;;;;12.50;78.80;95871.09;1760612;81;21010;-64
2021/06/14 09:16:32;;;;;;;4.70;2.53;;;;;;;12.60;78.44;95874.39;1760292;81;21038;-63
2021/06/14 09:18:59;;;;;;;5.50;2.53;;;;;;;12.72;78.47;95865.72;1760358;81;20999;-63
2021/06/14 09:21:30;;;;;;;3.57;1.70;;;;;;;12.87;77.65;95866.28;1760328;81;21022;-63
2021/06/14 09:24:05;;;;;;;3.60;1.60;;;;;;;13.07;76.74;95861.38;1760539;81;21018;-63
2021/06/14 09:26:38;;;;;;;3.57;2.03;;;;;;;13.27;75.57;95868.02;1760784;81;21034;-63
2021/06/14 09:29:15;;;;;;;9.63;5.07;;;;;;;13.49;75.18;95863.05;1760582;81;20995;-63
2021/06/14 09:32:01;;;;;;;4.10;2.83;;;;;;;13.69;75.07;95859.89;1760710;81;21556;-64
2021/06/14 09:34:41;;;;;;;3.63;2.03;;;;;;;13.81;74.82;95864.41;1760683;81;21027;-64
2021/06/14 09:37:12;;;;;;;4.23;2.10;;;;;;;14.03;74.61;95856.70;1760444;81;21023;-64
2021/06/14 09:39:43;;;;;;;2.62;2.00;;;;;;;14.30;73.72;95852.87;1760449;81;21039;-63
2021/06/14 09:42:27;;;;;;;3.35;1.90;;;;;;;14.46;72.01;95851.52;1760717;81;21098;-64
2021/06/14 09:45:07;;;;;;;4.03;2.30;;;;;;;14.62;72.34;95849.76;1760558;81;21066;-63
2021/06/14 09:47:33;;;;;;;2.98;1.90;;;;;;;14.76;71.75;95858.16;1760868;81;21484;-63
2021/06/14 09:50:11;;;;;;;4.30;2.00;;;;;;;14.75;70.89;95852.91;1760586;81;21031;-64
2021/06/14 09:52:35;;;;;;;2.87;1.62;;;;;;;14.74;70.86;95855.13;1759856;81;21050;-63
2021/06/14 09:55:09;;;;;;;2.62;1.45;;;;;;;14.67;69.12;95856.66;1760525;81;21070;-63
2021/06/14 09:57:36;;;;;;;2.67;2.35;;;;;;;14.58;69.26;95858.26;1760736;81;21094;-63
2021/06/14 10:00:12;;;;;;;3.95;2.00;;;;;;;14.60;69.80;95858.22;1760478;81;21038;-63
2021/06/14 10:02:40;;;;;;;2.30;1.60;;;;;;;14.47;68.83;95863.86;1760788;81;21027;-64
2021/06/14 10:05:22;;;;;;;2.08;1.65;;;;;;;14.41;67.87;95861.83;1760649;81;21062;-63
2021/06/14 10:07:53;;;;;;;2.42;2.00;;;;;;;14.28;66.16;95862.19;1760877;81;21075;-63
2021/06/14 10:10:25;;;;;;;4.10;2.00;;;;;;;14.17;67.91;95858.98;1760726;81;21050;-63
2021/06/14 13:53:29;;;;;;;5.60;1.72;;;;;;;22.34;36.86;95719.17;1808872;79;22734;-64
2021/06/14 13:56:06;;;;;;;2.00;1.20;;;;;;;21.55;38.13;95720.90;1779939;81;21046;-63
2021/06/14 13:58:43;;;;;;;3.17;1.07;;;;;;;21.06;38.28;95725.08;1780055;81;21506;-63
2021/06/14 14:13:40;;;;;;;1.85;0.90;;;;;;;24.17;33.44;95705.19;1860289;77;23183;-64
2021/06/14 14:16:06;;;;;;;2.35;1.15;;;;;;;23.92;35.58;95708.75;1832544;78;20968;-64
2021/06/14 14:18:36;;;;;;;1.55;1.10;;;;;;;23.72;35.29;95710.59;1831961;78;21533;-64
2021/06/14 14:21:04;;;;;;;2.62;1.02;;;;;;;23.92;34.16;95712.79;1832442;78;20995;-64
2021/06/14 14:23:30;;;;;;;1.62;0.90;;;;;;;23.81;34.35;95706.41;1832339;78;20992;-64
2021/06/14 14:25:57;;;;;;;1.17;1.00;;;;;;;23.02;34.69;95706.78;1832431;78;20980;-64
2021/06/14 14:28:24;;;;;;;8.65;1.27;;;;;;;22.17;35.58;95714.81;1832453;78;21094;-63
2021/06/14 14:30:51;;;;;;;1.98;1.32;;;;;;;21.54;38.72;95719.16;1832225;78;21023;-63
2021/06/14 14:33:18;;;;;;;2.87;1.27;;;;;;;21.38;38.88;95716.49;1832596;78;21056;-63
2021/06/14 14:35:56;;;;;;;1.77;1.10;;;;;;;21.26;38.76;95714.53;1832301;78;20984;-63
2021/06/14 14:38:22;;;;;;;2.05;1.00;;;;;;;20.67;39.40;95717.04;1830942;78;20988;-63
2021/06/14 14:40:49;;;;;;;1.35;1.20;;;;;;;20.15;39.43;95727.44;1832302;78;21047;-63
2021/06/14 14:43:16;;;;;;;2.58;1.32;;;;;;;20.00;41.21;95732.29;1832030;78;20987;-63
2021/06/14 14:45:43;;;;;;;1.90;1.15;;;;;;;19.87;40.62;95722.70;1832196;78;21492;-62
2021/06/14 14:48:12;;;;;;;1.10;1.00;;;;;;;19.59;42.90;95725.47;1832446;78;20976;-63
2021/06/14 14:50:43;;;;;;;1.27;1.07;;;;;;;19.26;44.22;95729.88;1832033;78;21047;-63
2021/06/14 14:53:11;;;;;;;9.08;1.30;;;;;;;18.94;43.39;95727.00;1832452;78;21003;-63
2021/06/14 14:55:42;;;;;;;3.92;1.25;;;;;;;18.74;44.33;95724.79;1832433;78;21007;-63
2021/06/14 14:58:09;;;;;;;3.08;1.00;;;;;;;19.08;44.42;95724.52;1832294;78;21043;-63
2021/06/14 15:00:36;;;;;;;6.70;1.92;;;;;;;19.95;42.37;95723.16;1832296;78;20964;-64
2021/06/14 15:03:03;;;;;;;3.67;2.80;;;;;;;20.60;40.53;95716.51;1832385;78;21015;-63
2021/06/14 15:05:30;;;;;;;4.53;1.30;;;;;;;21.36;39.21;95716.57;1832322;78;20988;-63
2021/06/14 15:07:57;;;;;;;3.17;1.50;;;;;;;21.93;37.19;95713.67;1832177;78;21039;-63
2021/06/14 15:10:23;;;;;;;1.92;1.40;;;;;;;22.35;36.53;95714.20;1832442;78;20965;-63
2021/06/14 15:12:50;;;;;;;2.22;1.75;;;;;;;22.50;35.73;95711.47;1830429;78;21015;-63
2021/06/14 15:15:19;;;;;;;2.83;1.30;;;;;;;22.57;35.44;95706.95;1837634;78;21007;-63
2021/06/14 15:17:49;;;;;;;2.27;1.90;;;;;;;23.08;34.34;95707.25;1837753;78;21536;-64
2021/06/14 15:20:19;;;;;;;2.30;1.00;;;;;;;23.19;34.48;95715.09;1837475;78;21012;-64
2021/06/14 15:22:47;;;;;;;2.02;1.30;;;;;;;23.37;33.39;95713.84;1837522;78;21051;-64
2021/06/14 15:25:17;;;;;;;2.95;1.60;;;;;;;23.12;34.13;95715.97;1837592;78;21450;-64
2021/06/14 15:27:44;;;;;;;2.08;1.35;;;;;;;22.73;35.02;95720.30;1837668;78;21496;-63
2021/06/14 15:30:14;;;;;;;2.05;1.17;;;;;;;21.79;35.69;95727.94;1837236;78;21039;-63
2021/06/14 15:32:48;;;;;;;6.15;1.37;;;;;;;21.13;37.19;95731.34;1837552;78;21062;-63
2021/06/14 15:35:22;;;;;;;1.90;1.30;;;;;;;21.02;37.67;95732.45;1837082;78;21004;-63
2021/06/14 15:37:51;;;;;;;1.45;1.30;;;;;;;20.52;39.10;95747.73;1837674;78;21110;-63
2021/06/14 15:40:19;;;;;;;2.20;1.30;;;;;;;20.00;41.08;95742.52;1837540;78;21030;-63
2021/06/14 15:42:47;;;;;;;2.40;1.00;;;;;;;20.09;40.33;95749.22;1837222;78;20988;-63